Time;durP1;ratioP1;P1;durP2;ratioP2;P2;SDS_P1;SDS_P2;PMS_P1;PMS_P2;Temp;Humidity;BMP_temperature;BMP_pressure;BME280_temperature;BME280_humidity;BME280_pressure;Samples;Min_cycle;Max_cycle;Signal;HPM_P1;HPM_P2
2022/05/14 00:01:05;;;;;;;7.10;2.40;;;19.70;54.30;;;;;;5049862;28;20182;-93
2022/05/14 00:03:32;;;;;;;4.13;2.10;;;19.70;54.50;;;;;;5050704;28;20190;-93
2022/05/14 00:06:10;;;;;;;6.20;2.20;;;19.70;54.50;;;;;;5049979;28;20246;-93
2022/05/14 00:08:35;;;;;;;6.37;2.27;;;19.70;54.40;;;;;;5049698;28;20177;-93
2022/05/14 00:13:46;;;;;;;6.40;2.20;;;19.60;54.90;;;;;;5025159;28;20234;-93
2022/05/14 00:16:18;;;;;;;5.47;2.13;;;19.60;54.80;;;;;;5037133;28;20254;-93
2022/05/14 00:18:44;;;;;;;5.63;2.27;;;19.60;54.80;;;;;;5026807;28;20182;-93
2022/05/14 00:21:11;;;;;;;7.63;2.30;;;19.60;54.80;;;;;;5026817;28;20207;-93
2022/05/14 00:23:37;;;;;;;6.40;2.10;;;19.60;54.90;;;;;;5026671;28;20634;-93
2022/05/14 00:26:03;;;;;;;4.77;2.17;;;19.60;55.00;;;;;;5031348;28;20181;-93
2022/05/14 00:28:29;;;;;;;7.70;2.43;;;19.50;55.00;;;;;;5037365;28;20166;-93
2022/05/14 00:30:55;;;;;;;3.67;1.90;;;19.50;55.00;;;;;;5027479;28;20172;-93
2022/05/14 00:33:23;;;;;;;4.43;2.33;;;19.50;55.10;;;;;;5030980;28;20201;-93
2022/05/14 00:35:48;;;;;;;5.23;2.37;;;19.50;55.30;;;;;;5037478;28;20197;-94
2022/05/14 00:38:14;;;;;;;5.67;2.23;;;19.40;55.60;;;;;;5038074;28;20185;-93
2022/05/14 00:41:03;;;;;;;4.40;2.10;;;19.30;55.80;;;;;;5045406;28;20212;-93
2022/05/14 00:43:31;;;;;;;4.80;2.37;;;19.30;55.80;;;;;;5036476;28;20544;-93
2022/05/14 00:46:05;;;;;;;6.93;2.63;;;19.30;56.10;;;;;;5024032;28;20173;-93
2022/05/14 00:48:37;;;;;;;4.53;2.30;;;19.30;55.90;;;;;;5035191;28;20172;-93
2022/05/14 00:51:05;;;;;;;5.73;2.57;;;19.30;55.80;;;;;;5025151;28;20177;-93
2022/05/14 00:53:45;;;;;;;4.50;2.53;;;19.30;55.80;;;;;;5039987;28;20186;-93
2022/05/14 00:56:15;;;;;;;8.67;2.60;;;19.30;55.90;;;;;;5044082;28;20181;-93
2022/05/14 00:58:57;;;;;;;6.20;2.43;;;19.30;56.00;;;;;;5044168;28;20180;-93
2022/05/14 01:01:22;;;;;;;5.70;2.70;;;19.20;56.30;;;;;;5032715;28;20190;-93
2022/05/14 01:03:48;;;;;;;6.67;2.37;;;19.10;56.70;;;;;;5043935;28;20231;-93
2022/05/14 01:06:18;;;;;;;5.97;2.17;;;19.00;57.10;;;;;;5045044;28;20176;-93
2022/05/14 01:08:45;;;;;;;5.03;2.33;;;18.90;57.30;;;;;;5040956;28;20180;-93
2022/05/14 01:11:12;;;;;;;5.37;2.37;;;18.90;57.40;;;;;;5040095;28;20283;-93
2022/05/14 01:13:38;;;;;;;9.73;2.60;;;18.90;57.50;;;;;;5038790;28;20178;-93
2022/05/14 01:16:04;;;;;;;9.27;2.83;;;18.90;57.50;;;;;;5037702;28;20207;-93
2022/05/14 01:18:33;;;;;;;3.33;2.37;;;18.90;57.30;;;;;;5039187;28;20180;-94
2022/05/14 01:21:09;;;;;;;5.17;2.60;;;19.00;57.00;;;;;;5048196;28;20195;-92
2022/05/14 01:26:35;;;;;;;5.67;2.70;;;19.00;57.10;;;;;;5047331;28;20247;-93
2022/05/14 01:29:19;;;;;;;9.23;2.83;;;19.00;57.00;;;;;;5048115;28;20525;-93
2022/05/14 01:31:46;;;;;;;5.17;2.37;;;19.00;56.80;;;;;;5037903;28;20213;-93
2022/05/14 01:34:17;;;;;;;7.87;2.77;;;19.00;56.80;;;;;;5030540;28;20173;-93
2022/05/14 01:36:43;;;;;;;5.67;2.60;;;19.00;56.80;;;;;;5036909;28;20177;-94
2022/05/14 01:39:10;;;;;;;6.03;2.43;;;19.00;56.80;;;;;;5031757;28;20181;-93
2022/05/14 01:41:36;;;;;;;7.80;2.90;;;19.00;56.60;;;;;;5035039;28;20181;-93
2022/05/14 01:44:02;;;;;;;5.10;2.80;;;19.00;56.80;;;;;;5034476;28;20194;-93
2022/05/14 01:46:28;;;;;;;4.40;2.60;;;19.00;56.80;;;;;;5035614;28;20179;-93
2022/05/14 01:48:55;;;;;;;7.10;2.70;;;19.00;56.80;;;;;;5028169;28;20181;-94
2022/05/14 01:51:20;;;;;;;7.73;2.70;;;19.00;56.60;;;;;;5044468;28;20175;-93
2022/05/14 01:53:46;;;;;;;4.43;2.63;;;19.00;56.70;;;;;;5048084;28;20200;-92
2022/05/14 01:56:12;;;;;;;6.57;2.67;;;19.00;56.90;;;;;;5047792;28;20254;-92
2022/05/14 01:58:38;;;;;;;6.67;2.57;;;19.00;56.70;;;;;;5032681;28;20182;-93
2022/05/14 02:01:15;;;;;;;7.63;3.17;;;19.00;56.60;;;;;;5035940;28;20175;-93
2022/05/14 02:03:44;;;;;;;6.37;2.70;;;19.00;56.80;;;;;;5046342;28;20204;-93
2022/05/14 02:06:11;;;;;;;6.63;3.10;;;19.00;56.80;;;;;;5038408;28;20265;-93
2022/05/14 02:08:37;;;;;;;6.17;2.77;;;18.90;56.80;;;;;;5041549;28;20176;-93
2022/05/14 02:11:03;;;;;;;7.73;3.20;;;18.90;56.80;;;;;;5045807;28;20188;-93
2022/05/14 02:13:30;;;;;;;5.77;2.93;;;18.90;56.80;;;;;;5046029;28;20290;-93
2022/05/14 02:15:56;;;;;;;7.47;3.20;;;18.90;56.80;;;;;;5047387;28;20200;-93
2022/05/14 02:18:22;;;;;;;10.03;3.10;;;18.90;56.60;;;;;;5047249;28;20180;-93
2022/05/14 02:20:48;;;;;;;7.00;3.27;;;18.90;56.80;;;;;;5034611;28;20186;-93
2022/05/14 02:23:14;;;;;;;6.77;3.53;;;18.90;57.10;;;;;;5044353;28;20188;-93
2022/05/14 02:25:41;;;;;;;7.40;3.00;;;18.90;57.20;;;;;;5038485;28;20222;-94
2022/05/14 02:28:07;;;;;;;9.93;3.70;;;18.80;57.40;;;;;;5029324;28;20223;-93
2022/05/14 02:30:33;;;;;;;10.37;3.37;;;18.80;57.60;;;;;;5040494;28;20194;-93
2022/05/14 02:32:59;;;;;;;8.13;3.47;;;18.80;57.50;;;;;;5049366;28;20208;-93
2022/05/14 02:35:27;;;;;;;12.50;3.67;;;18.80;57.60;;;;;;5039603;28;20180;-93
2022/05/14 02:37:53;;;;;;;6.23;3.50;;;18.70;57.40;;;;;;5029830;28;20189;-93
2022/05/14 02:40:19;;;;;;;7.73;3.77;;;18.70;57.60;;;;;;5029671;28;20285;-93
2022/05/14 02:42:44;;;;;;;11.57;3.60;;;18.70;57.50;;;;;;5029714;28;20185;-93
2022/05/14 02:45:12;;;;;;;7.80;3.63;;;18.70;57.50;;;;;;5029167;28;20177;-93
2022/05/14 02:47:37;;;;;;;10.23;3.87;;;18.70;57.30;;;;;;5032024;28;20231;-93
2022/05/14 02:50:05;;;;;;;6.87;2.93;;;18.80;57.10;;;;;;5048640;28;20176;-93
2022/05/14 02:52:31;;;;;;;10.50;3.43;;;18.80;57.00;;;;;;5046677;28;20215;-93
2022/05/14 02:54:59;;;;;;;8.07;3.40;;;18.90;56.90;;;;;;5043745;28;20250;-92
2022/05/14 02:57:24;;;;;;;4.60;2.97;;;18.90;56.80;;;;;;5042112;28;20441;-93
2022/05/14 02:59:50;;;;;;;7.53;3.47;;;18.90;56.90;;;;;;5034516;28;20622;-92
2022/05/14 03:02:17;;;;;;;11.67;3.73;;;18.90;56.90;;;;;;5048161;28;20199;-93
2022/05/14 03:04:44;;;;;;;6.57;3.37;;;18.80;56.90;;;;;;5048809;28;20215;-93
2022/05/14 03:07:11;;;;;;;8.57;3.33;;;18.90;56.70;;;;;;5044851;28;20634;-92
2022/05/14 03:09:38;;;;;;;7.23;3.30;;;18.80;56.60;;;;;;5048139;28;20256;-93
2022/05/14 03:12:09;;;;;;;9.80;3.30;;;18.80;56.80;;;;;;5048068;28;20220;-93
2022/05/14 03:14:35;;;;;;;4.57;2.97;;;18.80;56.70;;;;;;5047273;28;20165;-93
2022/05/14 03:17:01;;;;;;;6.90;3.07;;;18.90;56.60;;;;;;5029856;28;20174;-93
2022/05/14 03:19:27;;;;;;;7.07;3.17;;;18.90;56.50;;;;;;5030084;28;20204;-93
2022/05/14 03:21:53;;;;;;;9.23;2.83;;;18.90;56.40;;;;;;5029419;28;20568;-93
2022/05/14 03:24:19;;;;;;;6.87;3.10;;;18.90;56.40;;;;;;5030825;28;20180;-93
2022/05/14 03:26:45;;;;;;;5.70;2.77;;;18.90;56.40;;;;;;5031091;28;20188;-93
2022/05/14 03:29:11;;;;;;;6.63;3.10;;;18.90;56.30;;;;;;5043503;28;20259;-93
2022/05/14 03:31:42;;;;;;;9.23;3.07;;;18.90;56.30;;;;;;5044100;28;20206;-93
2022/05/14 03:34:13;;;;;;;6.07;2.93;;;18.90;56.10;;;;;;5044651;28;20554;-93
2022/05/14 03:36:40;;;;;;;8.30;3.00;;;18.90;56.10;;;;;;5043560;28;20199;-92
2022/05/14 03:39:06;;;;;;;5.50;2.70;;;18.90;56.10;;;;;;5043598;28;20184;-93
2022/05/14 03:41:33;;;;;;;5.03;2.97;;;18.90;56.10;;;;;;5041572;28;20220;-93
2022/05/14 03:43:59;;;;;;;5.80;3.17;;;18.90;56.10;;;;;;5022882;28;20470;-93
2022/05/14 03:46:25;;;;;;;5.93;2.97;;;18.90;56.10;;;;;;5024113;28;20559;-92
2022/05/14 03:48:51;;;;;;;5.30;2.63;;;18.90;55.90;;;;;;5042359;28;20180;-93
2022/05/14 03:51:17;;;;;;;7.67;2.67;;;18.90;56.00;;;;;;5039605;28;20196;-93
2022/05/14 03:53:42;;;;;;;7.47;2.73;;;18.80;56.00;;;;;;5037671;28;20184;-92
2022/05/14 03:56:08;;;;;;;5.27;2.40;;;18.80;56.00;;;;;;5042460;28;20184;-93
2022/05/14 03:58:37;;;;;;;4.73;2.40;;;18.80;56.00;;;;;;5040853;28;20199;-92
2022/05/14 04:01:05;;;;;;;4.87;2.53;;;18.80;55.90;;;;;;5045127;28;20186;-93
2022/05/14 04:03:33;;;;;;;6.20;2.40;;;18.80;55.80;;;;;;5039577;28;20198;-93
2022/05/14 04:06:00;;;;;;;4.80;2.60;;;18.80;55.80;;;;;;5043108;28;20219;-93
2022/05/14 04:08:26;;;;;;;5.90;2.57;;;18.80;55.80;;;;;;5043924;28;20184;-93
2022/05/14 04:10:52;;;;;;;3.47;2.20;;;18.80;55.80;;;;;;5043253;28;20220;-93
2022/05/14 04:13:18;;;;;;;5.73;2.30;;;18.80;55.70;;;;;;5043449;28;20217;-93
2022/05/14 04:15:44;;;;;;;6.90;2.40;;;18.80;55.60;;;;;;5041815;28;20189;-93
2022/05/14 04:18:12;;;;;;;4.20;2.30;;;18.80;55.70;;;;;;5042650;28;20187;-93
2022/05/14 04:20:37;;;;;;;4.27;2.50;;;18.80;55.60;;;;;;5042790;28;20184;-93
2022/05/14 04:23:04;;;;;;;4.50;2.17;;;18.80;55.40;;;;;;5042840;28;20176;-93
2022/05/14 04:25:30;;;;;;;4.20;2.33;;;18.80;55.40;;;;;;5044281;28;20176;-93
2022/05/14 04:27:56;;;;;;;4.60;2.27;;;18.80;55.40;;;;;;5044214;28;20199;-93
2022/05/14 04:30:21;;;;;;;4.60;2.20;;;18.90;55.40;;;;;;5034166;28;20183;-93
2022/05/14 04:32:47;;;;;;;5.97;2.50;;;18.90;55.30;;;;;;5042415;28;20273;-93
2022/05/14 04:35:15;;;;;;;3.87;2.20;;;18.90;55.30;;;;;;5044347;28;20205;-93
2022/05/14 04:37:41;;;;;;;5.70;2.50;;;18.90;55.40;;;;;;5040782;28;20169;-93
2022/05/14 04:40:08;;;;;;;4.97;2.43;;;18.80;55.50;;;;;;5039028;28;20182;-94
2022/05/14 04:42:38;;;;;;;5.20;2.60;;;18.80;55.50;;;;;;5036853;28;20176;-94
2022/05/14 04:45:08;;;;;;;4.23;2.40;;;18.90;55.60;;;;;;5035425;28;20184;-93
2022/05/14 04:47:35;;;;;;;6.33;2.57;;;18.90;55.60;;;;;;5033559;28;20277;-93
2022/05/14 04:50:01;;;;;;;3.87;2.00;;;18.90;55.40;;;;;;5040811;28;20600;-93
2022/05/14 04:52:27;;;;;;;6.40;2.00;;;18.90;55.40;;;;;;5036820;28;20203;-93
2022/05/14 04:54:52;;;;;;;4.47;2.10;;;18.90;55.20;;;;;;5043051;28;20175;-93
2022/05/14 04:57:18;;;;;;;6.03;2.27;;;19.00;55.30;;;;;;5028839;28;20273;-93
2022/05/14 04:59:44;;;;;;;7.53;2.23;;;19.00;55.00;;;;;;5041381;28;20214;-93
2022/05/14 05:04:54;;;;;;;4.37;2.30;;;19.10;54.90;;;;;;5033256;28;20192;-93
2022/05/14 05:07:20;;;;;;;4.30;2.30;;;19.20;54.80;;;;;;5043317;28;20187;-93
2022/05/14 05:09:46;;;;;;;6.60;2.17;;;19.20;54.70;;;;;;5047502;28;20199;-93
2022/05/14 05:12:12;;;;;;;4.83;2.10;;;19.30;54.80;;;;;;5049092;28;20209;-93
2022/05/14 05:14:38;;;;;;;3.97;2.07;;;19.40;54.60;;;;;;5031710;28;20261;-93
2022/05/14 05:17:07;;;;;;;10.40;2.30;;;19.40;54.30;;;;;;5028733;28;20212;-93
2022/05/14 05:19:33;;;;;;;7.13;2.47;;;19.50;54.10;;;;;;5028445;28;20203;-93
2022/05/14 05:21:59;;;;;;;3.33;2.10;;;19.60;54.20;;;;;;5029352;28;20187;-93
2022/05/14 05:24:24;;;;;;;3.90;2.07;;;19.70;54.00;;;;;;5027505;28;20217;-93
2022/05/14 05:26:51;;;;;;;6.30;2.50;;;19.80;53.80;;;;;;5027708;28;20272;-93
2022/05/14 05:29:18;;;;;;;5.10;2.33;;;19.80;54.00;;;;;;5027743;28;20179;-93
2022/05/14 05:31:44;;;;;;;6.37;2.30;;;19.90;53.80;;;;;;5028840;28;20219;-93
2022/05/14 05:34:10;;;;;;;8.27;2.43;;;19.90;53.50;;;;;;5028857;28;20180;-93
2022/05/14 05:36:36;;;;;;;5.67;2.07;;;19.90;53.50;;;;;;5045377;28;20212;-93
2022/05/14 05:39:01;;;;;;;4.20;1.77;;;20.00;53.50;;;;;;5048770;28;20187;-93
2022/05/14 05:41:28;;;;;;;6.17;2.30;;;20.10;53.60;;;;;;5047767;28;20180;-93
2022/05/14 05:43:54;;;;;;;3.43;1.93;;;20.20;53.80;;;;;;5048911;28;20179;-93
2022/05/14 05:46:20;;;;;;;5.23;2.20;;;20.30;53.30;;;;;;5030588;28;20183;-92
2022/05/14 05:48:46;;;;;;;5.37;2.03;;;20.40;53.30;;;;;;5033208;28;20255;-93
2022/05/14 05:51:12;;;;;;;2.33;1.40;;;20.40;53.10;;;;;;5045063;28;20192;-93
2022/05/14 05:59:08;;;;;;;3.27;1.50;;;20.90;51.60;;;;;;5043486;28;20178;-93
2022/05/14 06:01:34;;;;;;;2.87;1.43;;;21.20;50.90;;;;;;5043265;28;20213;-93
2022/05/14 06:04:00;;;;;;;3.00;1.43;;;21.40;50.20;;;;;;5036754;28;20235;-93
2022/05/14 06:06:26;;;;;;;2.33;1.37;;;21.60;49.70;;;;;;5050908;28;20215;-93
2022/05/14 06:08:53;;;;;;;3.03;1.60;;;21.80;49.30;;;;;;5051238;28;20185;-93
2022/05/14 06:11:20;;;;;;;3.80;1.33;;;22.00;49.00;;;;;;5048395;28;20178;-93
2022/05/14 06:13:46;;;;;;;3.97;2.17;;;22.30;48.40;;;;;;5046835;28;20193;-93
2022/05/14 06:16:14;;;;;;;1.93;1.40;;;22.40;48.40;;;;;;5038695;28;20276;-93
2022/05/14 06:18:42;;;;;;;1.63;1.30;;;22.50;48.00;;;;;;5040526;28;20198;-93
2022/05/14 06:21:08;;;;;;;3.67;1.30;;;22.50;47.80;;;;;;5043108;28;20166;-93
2022/05/14 06:23:34;;;;;;;2.33;1.23;;;22.60;47.70;;;;;;5037229;28;20176;-94
2022/05/14 06:26:08;;;;;;;2.07;1.27;;;22.80;47.40;;;;;;5032285;28;20175;-94
2022/05/14 06:28:34;;;;;;;2.40;1.50;;;22.80;47.30;;;;;;5040457;28;20175;-94
2022/05/14 06:31:00;;;;;;;1.63;1.20;;;22.90;47.30;;;;;;5034282;28;20177;-94
2022/05/14 06:33:26;;;;;;;2.77;1.60;;;23.00;47.10;;;;;;5028601;28;20277;-93
2022/05/14 06:35:58;;;;;;;1.93;1.30;;;23.10;47.00;;;;;;5037834;28;20223;-94
2022/05/14 06:38:24;;;;;;;1.40;1.30;;;23.10;46.90;;;;;;5034513;28;20172;-94
2022/05/14 06:40:50;;;;;;;1.73;1.30;;;23.10;46.90;;;;;;5035714;28;20263;-93
2022/05/14 06:43:16;;;;;;;1.57;1.20;;;23.20;46.80;;;;;;5032735;28;20345;-93
2022/05/14 06:45:46;;;;;;;2.03;1.30;;;23.30;46.60;;;;;;5042151;28;20191;-94
2022/05/14 06:48:12;;;;;;;;;;;23.50;46.40;;;;;;5040873;28;20178;-94
2022/05/14 06:50:49;;;;;;;2.20;1.40;;;23.60;46.20;;;;;;5046681;28;19909;-94
2022/05/14 06:53:24;;;;;;;4.20;1.80;;;23.70;46.20;;;;;;5037141;28;20205;-94
2022/05/14 06:55:54;;;;;;;2.17;1.37;;;23.70;46.00;;;;;;5050802;28;20169;-94
2022/05/14 06:58:24;;;;;;;3.60;1.50;;;23.80;46.00;;;;;;5048318;28;20179;-94
2022/05/14 07:00:50;;;;;;;2.27;1.50;;;24.00;45.80;;;;;;5046065;28;20204;-94
2022/05/14 07:08:47;;;;;;;2.80;1.33;;;24.10;45.70;;;;;;5025187;28;20226;-94
2022/05/14 07:11:13;;;;;;;4.80;1.40;;;24.10;45.70;;;;;;5043676;28;20174;-94
2022/05/14 07:13:39;;;;;;;2.65;1.35;;;24.10;45.80;;;;;;5037850;28;20205;-93
2022/05/14 07:16:05;;;;;;;2.58;1.20;;;24.20;45.90;;;;;;5036844;28;20200;-94
2022/05/14 07:18:32;;;;;;;2.55;1.27;;;24.30;46.20;;;;;;5039014;28;20174;-94
2022/05/14 07:20:58;;;;;;;3.88;1.45;;;24.50;45.50;;;;;;5035366;28;20189;-94
2022/05/14 07:23:25;;;;;;;2.78;1.55;;;24.50;45.40;;;;;;5050378;28;20212;-95
2022/05/14 07:25:51;;;;;;;2.63;1.67;;;24.60;45.50;;;;;;5052719;28;20189;-95
2022/05/14 07:28:17;;;;;;;2.70;1.42;;;24.70;45.40;;;;;;5054453;28;20157;-94
2022/05/14 07:30:43;;;;;;;2.00;1.35;;;24.60;45.40;;;;;;5050868;28;20181;-94
2022/05/14 07:33:14;;;;;;;4.15;1.75;;;24.70;45.40;;;;;;5054927;28;20213;-94
2022/05/14 07:35:40;;;;;;;2.72;1.60;;;24.80;45.30;;;;;;5053528;28;20186;-95
2022/05/14 07:38:06;;;;;;;3.55;1.40;;;24.90;45.10;;;;;;5051795;28;20555;-95
2022/05/14 07:40:36;;;;;;;4.25;1.60;;;25.00;45.10;;;;;;5048258;28;20176;-95
2022/05/14 07:43:16;;;;;;;4.53;1.80;;;25.00;45.00;;;;;;5049271;28;20197;-95
2022/05/14 07:45:44;;;;;;;4.75;1.88;;;25.10;45.00;;;;;;5048992;28;20177;-95
2022/05/14 07:51:00;;;;;;;4.00;1.65;;;25.10;45.00;;;;;;5032397;28;20192;-95
2022/05/14 07:53:30;;;;;;;3.90;1.75;;;25.10;45.00;;;;;;5050714;28;20137;-95
2022/05/14 07:56:02;;;;;;;5.63;1.90;;;25.20;44.90;;;;;;5049096;28;20169;-95
2022/05/14 07:58:29;;;;;;;4.57;1.83;;;25.20;44.90;;;;;;5044918;28;20196;-94
2022/05/14 08:00:56;;;;;;;3.08;1.52;;;25.20;44.90;;;;;;5042206;28;20241;-93
2022/05/14 08:03:24;;;;;;;4.80;1.70;;;25.20;45.00;;;;;;5045494;28;20611;-94
2022/05/14 08:06:00;;;;;;;3.72;1.80;;;25.30;45.10;;;;;;5047116;28;20169;-94
2022/05/14 08:08:26;;;;;;;3.58;1.85;;;25.20;45.00;;;;;;5047833;28;20233;-94
2022/05/14 08:10:53;;;;;;;4.97;1.90;;;25.30;45.20;;;;;;5044560;28;20262;-94
2022/05/14 08:13:20;;;;;;;5.88;2.03;;;25.40;45.10;;;;;;5027772;28;20297;-94
2022/05/14 08:15:53;;;;;;;3.30;1.60;;;25.40;45.00;;;;;;5047609;28;20576;-94
2022/05/14 08:18:19;;;;;;;4.68;1.88;;;25.40;45.00;;;;;;5049542;28;20471;-94
2022/05/14 08:20:47;;;;;;;7.57;2.00;;;25.40;45.10;;;;;;5048408;28;20363;-94
2022/05/14 08:26:00;;;;;;;4.68;2.28;;;25.30;45.20;;;;;;5050857;28;20200;-94
2022/05/14 08:28:27;;;;;;;6.43;1.73;;;25.30;45.40;;;;;;5048677;28;20177;-95
2022/05/14 08:30:53;;;;;;;4.90;2.00;;;25.30;45.20;;;;;;5051227;28;20164;-95
2022/05/14 08:33:19;;;;;;;7.45;1.75;;;25.30;45.30;;;;;;5050452;28;20224;-95
2022/05/14 08:35:47;;;;;;;3.60;1.90;;;25.20;45.50;;;;;;5041226;28;20223;-94
2022/05/14 08:38:14;;;;;;;3.53;1.80;;;25.20;45.50;;;;;;5038235;28;20201;-95
2022/05/14 08:40:44;;;;;;;4.35;2.00;;;25.10;45.70;;;;;;5030568;28;20181;-95
2022/05/14 08:43:19;;;;;;;4.28;2.05;;;25.10;45.80;;;;;;5036966;28;20169;-95
2022/05/14 08:45:45;;;;;;;4.00;2.22;;;25.00;46.00;;;;;;5030699;28;20165;-95
2022/05/14 08:48:19;;;;;;;4.35;1.90;;;25.00;46.20;;;;;;5037498;28;20235;-95
2022/05/14 08:50:52;;;;;;;4.75;1.80;;;25.00;46.30;;;;;;5044678;28;20197;-94
2022/05/14 08:53:23;;;;;;;6.38;2.00;;;24.90;46.20;;;;;;5049629;28;20237;-94
2022/05/14 08:56:26;;;;;;;6.03;2.10;;;24.90;46.30;;;;;;5050210;28;20169;-95
2022/05/14 08:59:27;;;;;;;5.22;2.00;;;24.90;46.50;;;;;;5045117;28;20202;-95
2022/05/14 09:02:05;;;;;;;4.78;2.00;;;24.90;46.40;;;;;;5045784;28;20177;-95
2022/05/14 09:04:31;;;;;;;4.55;1.92;;;24.90;46.50;;;;;;5021741;28;20173;-95
2022/05/14 09:06:57;;;;;;;5.40;1.92;;;24.90;46.50;;;;;;5012368;28;20174;-95
2022/05/14 09:09:23;;;;;;;5.13;2.35;;;24.90;46.70;;;;;;5009525;28;20178;-96
2022/05/14 09:11:59;;;;;;;5.60;2.08;;;24.90;46.70;;;;;;5007897;28;20224;-94
2022/05/14 09:14:33;;;;;;;4.88;2.03;;;24.90;46.70;;;;;;5008548;28;20176;-95
2022/05/14 09:17:20;;;;;;;3.65;2.15;;;24.90;46.80;;;;;;5007933;28;20173;-94
2022/05/14 09:19:48;;;;;;;4.53;2.00;;;24.90;46.70;;;;;;5005407;28;20174;-94
2022/05/14 09:22:31;;;;;;;5.82;2.13;;;24.90;46.70;;;;;;5008505;28;20476;-95
2022/05/14 09:24:56;;;;;;;5.10;2.10;;;24.90;46.90;;;;;;5003766;28;20177;-95
2022/05/14 09:27:41;;;;;;;4.65;2.00;;;24.90;46.90;;;;;;5006462;28;20188;-94
2022/05/14 09:30:11;;;;;;;5.97;2.30;;;24.90;47.00;;;;;;5008662;28;20170;-94
2022/05/14 09:32:43;;;;;;;5.43;2.25;;;25.00;46.90;;;;;;5004033;28;20225;-95
2022/05/14 09:35:23;;;;;;;4.57;2.35;;;24.90;47.00;;;;;;5005730;28;20169;-94
2022/05/14 09:37:50;;;;;;;5.07;2.22;;;25.00;47.10;;;;;;5007181;28;20165;-95
2022/05/14 09:40:34;;;;;;;4.45;2.17;;;25.00;47.10;;;;;;5006098;28;20284;-94
2022/05/14 09:43:15;;;;;;;5.18;2.00;;;25.10;47.10;;;;;;5003356;28;20185;-94
2022/05/14 09:46:02;;;;;;;4.60;2.10;;;25.10;47.10;;;;;;5003159;28;20253;-94
2022/05/14 09:48:37;;;;;;;6.72;2.30;;;25.10;47.30;;;;;;5006845;28;20169;-94
2022/05/14 09:51:08;;;;;;;5.60;2.40;;;25.20;47.30;;;;;;5006194;28;20238;-95
2022/05/14 09:53:41;;;;;;;3.80;2.25;;;25.20;47.30;;;;;;5008286;28;20213;-94
2022/05/14 09:56:10;;;;;;;4.45;2.00;;;25.20;47.10;;;;;;5011221;28;20296;-95
2022/05/14 09:59:02;;;;;;;4.63;2.08;;;25.20;47.30;;;;;;5010053;28;20173;-95
2022/05/14 10:01:45;;;;;;;4.90;2.30;;;25.10;47.30;;;;;;5023482;28;20261;-94
2022/05/14 10:04:36;;;;;;;8.85;2.28;;;25.10;47.40;;;;;;5026036;28;20187;-94
2022/05/14 10:07:12;;;;;;;7.03;2.85;;;25.10;47.30;;;;;;5030623;28;20413;-94
2022/05/14 10:09:44;;;;;;;3.90;2.10;;;25.20;47.50;;;;;;5025155;28;20227;-93
2022/05/14 10:12:34;;;;;;;5.47;2.30;;;25.20;47.60;;;;;;5025749;28;20215;-94
2022/05/14 10:15:31;;;;;;;4.53;2.30;;;25.20;47.50;;;;;;5028676;28;20196;-94
2022/05/14 10:18:32;;;;;;;4.55;2.00;;;25.10;47.50;;;;;;5025602;28;20185;-95
2022/05/14 10:21:17;;;;;;;4.30;2.30;;;25.10;47.50;;;;;;5034195;28;20184;-95
2022/05/14 10:27:13;;;;;;;4.85;2.10;;;25.10;47.60;;;;;;5040663;28;20188;-94
2022/05/14 10:29:56;;;;;;;7.00;2.40;;;25.10;47.70;;;;;;5026416;28;20177;-94
2022/05/14 10:32:26;;;;;;;4.30;1.77;;;25.10;47.70;;;;;;5025463;28;20213;-94
2022/05/14 10:35:17;;;;;;;5.03;1.97;;;25.10;47.60;;;;;;5025851;28;20184;-94
2022/05/14 10:37:52;;;;;;;4.67;2.13;;;25.10;47.80;;;;;;5023686;28;20177;-94
2022/05/14 10:40:29;;;;;;;4.57;2.07;;;25.10;47.80;;;;;;5032788;28;20176;-94
2022/05/14 10:42:56;;;;;;;5.40;2.10;;;25.10;47.70;;;;;;5032751;28;20241;-94
2022/05/14 10:45:43;;;;;;;6.93;2.00;;;25.10;47.80;;;;;;5031565;28;20203;-94
2022/05/14 10:48:09;;;;;;;5.80;2.00;;;25.10;47.80;;;;;;5037281;28;20161;-94
2022/05/14 10:50:34;;;;;;;7.17;2.13;;;25.10;47.90;;;;;;5039856;28;20192;-93
2022/05/14 10:53:06;;;;;;;4.40;2.10;;;25.10;47.90;;;;;;5034792;28;20220;-94
2022/05/14 10:55:42;;;;;;;4.77;2.00;;;25.10;47.90;;;;;;5029949;28;20223;-94
2022/05/14 10:58:08;;;;;;;4.17;1.87;;;25.10;48.00;;;;;;5028342;28;20183;-93
2022/05/14 11:00:41;;;;;;;4.87;2.07;;;25.00;47.80;;;;;;5025704;28;20174;-93
2022/05/14 11:03:13;;;;;;;5.33;2.23;;;25.00;48.00;;;;;;5021965;28;20205;-94
2022/05/14 11:05:50;;;;;;;5.67;2.00;;;25.00;47.90;;;;;;5038358;28;20472;-93
2022/05/14 11:08:28;;;;;;;5.13;1.80;;;25.00;48.00;;;;;;5048842;28;20180;-93
2022/05/14 11:11:16;;;;;;;5.20;2.13;;;25.10;48.10;;;;;;5049857;28;20168;-95
2022/05/14 11:14:15;;;;;;;4.67;2.10;;;25.10;48.10;;;;;;5039938;28;20198;-95
2022/05/14 11:16:47;;;;;;;4.47;1.90;;;25.10;48.10;;;;;;5050273;28;20308;-95
2022/05/14 11:19:30;;;;;;;4.03;1.80;;;25.10;48.10;;;;;;5053683;28;20185;-94
2022/05/14 11:21:56;;;;;;;3.77;1.90;;;25.10;48.10;;;;;;5056513;28;20153;-94
2022/05/14 11:24:43;;;;;;;4.40;1.90;;;25.10;48.00;;;;;;5053258;28;20177;-94
2022/05/14 11:27:37;;;;;;;5.87;1.80;;;25.10;48.20;;;;;;5051657;28;20272;-94
2022/05/14 11:30:11;;;;;;;3.33;2.17;;;25.10;48.10;;;;;;5048144;28;20242;-94
2022/05/14 11:32:52;;;;;;;6.60;2.10;;;25.10;48.20;;;;;;5050831;28;20238;-94
2022/05/14 11:35:18;;;;;;;4.27;1.90;;;25.10;48.10;;;;;;5052009;28;20173;-94
2022/05/14 11:37:47;;;;;;;4.80;2.00;;;25.10;48.10;;;;;;5048362;28;20172;-95
2022/05/14 11:40:13;;;;;;;6.67;1.97;;;25.10;48.20;;;;;;5049909;28;20165;-94
2022/05/14 11:42:39;;;;;;;4.73;2.20;;;25.10;48.20;;;;;;5051987;28;20230;-94
2022/05/14 11:45:14;;;;;;;4.17;1.80;;;25.10;48.20;;;;;;5048203;28;20176;-94
2022/05/14 11:48:01;;;;;;;5.60;2.30;;;25.10;48.10;;;;;;5048363;28;20184;-94
2022/05/14 11:50:35;;;;;;;3.97;1.80;;;25.10;48.10;;;;;;5044755;28;20177;-94
2022/05/14 11:53:11;;;;;;;4.77;1.97;;;25.10;48.00;;;;;;5044644;28;20792;-94
2022/05/14 11:55:52;;;;;;;4.90;1.97;;;25.10;48.10;;;;;;5049730;28;20164;-94
2022/05/14 11:58:21;;;;;;;5.20;1.87;;;25.10;48.20;;;;;;5033751;28;20185;-94
2022/05/14 12:00:50;;;;;;;4.50;2.27;;;25.10;48.30;;;;;;5037087;28;20189;-93
2022/05/14 12:03:23;;;;;;;3.17;1.77;;;25.10;48.30;;;;;;5037765;28;20197;-95
2022/05/14 12:06:06;;;;;;;4.33;1.90;;;25.20;48.30;;;;;;5047145;28;20173;-95
2022/05/14 12:08:46;;;;;;;5.63;2.00;;;25.20;48.20;;;;;;5052654;28;20164;-94
2022/05/14 12:11:36;;;;;;;5.23;1.83;;;25.20;48.20;;;;;;5058871;28;20157;-93
2022/05/14 12:21:16;;;;;;;6.20;2.07;;;25.20;48.20;;;;;;5052088;28;20221;-94
2022/05/14 12:23:45;;;;;;;5.23;2.10;;;25.20;48.40;;;;;;5052152;28;20234;-95
2022/05/14 12:26:58;;;;;;;5.90;1.97;;;25.20;48.50;;;;;;5056251;28;20249;-95
2022/05/14 12:29:29;;;;;;;2.93;1.93;;;25.20;48.40;;;;;;5054855;28;20177;-94
2022/05/14 12:34:51;;;;;;;5.33;2.00;;;25.20;48.00;;;;;;5049741;28;20175;-94
2022/05/14 12:37:20;;;;;;;5.13;2.30;;;25.20;48.60;;;;;;5054681;28;20190;-94
2022/05/14 12:39:48;;;;;;;6.37;2.00;;;25.20;48.50;;;;;;5057548;28;20187;-94
2022/05/14 12:42:15;;;;;;;7.20;2.10;;;25.20;48.40;;;;;;5057400;28;20176;-94
2022/05/14 12:44:46;;;;;;;5.10;1.93;;;25.20;48.40;;;;;;5046740;28;20263;-93
2022/05/14 12:47:24;;;;;;;4.27;1.90;;;25.30;48.40;;;;;;5046455;28;20248;-94
2022/05/14 12:49:50;;;;;;;6.00;2.03;;;25.30;48.50;;;;;;5044143;28;20188;-94
2022/05/14 12:52:28;;;;;;;8.30;3.07;;;25.30;48.70;;;;;;5043674;28;20212;-94
2022/05/14 12:55:05;;;;;;;5.23;2.40;;;25.30;48.50;;;;;;5046830;28;20211;-94
2022/05/14 12:57:35;;;;;;;5.27;1.80;;;25.30;48.80;;;;;;5044253;28;20185;-93
2022/05/14 13:00:05;;;;;;;4.20;1.87;;;25.30;48.60;;;;;;5051556;28;20172;-93
2022/05/14 13:02:41;;;;;;;5.17;2.03;;;25.40;48.80;;;;;;5049825;28;20181;-93
2022/05/14 13:05:14;;;;;;;5.90;2.30;;;25.40;48.60;;;;;;5051458;28;20239;-94
2022/05/14 13:08:12;;;;;;;4.97;2.80;;;25.40;48.60;;;;;;5050432;28;20176;-94
2022/05/14 13:10:40;;;;;;;5.97;2.30;;;25.40;48.50;;;;;;5048877;28;20177;-94
2022/05/14 13:13:09;;;;;;;4.47;2.20;;;25.40;48.70;;;;;;5048917;28;20208;-94
2022/05/14 13:15:52;;;;;;;4.00;2.07;;;25.40;48.60;;;;;;5049709;28;20265;-94
2022/05/14 13:18:44;;;;;;;9.43;3.43;;;25.40;48.70;;;;;;5046039;28;20180;-94
2022/05/14 13:21:18;;;;;;;8.33;3.60;;;25.30;48.30;;;;;;5042905;28;20181;-94
2022/05/14 13:24:05;;;;;;;3.93;2.00;;;25.30;48.60;;;;;;5047124;28;20177;-95
2022/05/14 13:26:36;;;;;;;7.60;3.10;;;25.30;48.70;;;;;;5031908;28;20174;-94
2022/05/14 13:29:27;;;;;;;4.43;2.10;;;25.30;47.80;;;;;;5024712;28;20173;-93
2022/05/14 13:32:09;;;;;;;3.00;2.13;;;25.30;48.40;;;;;;5030503;28;20192;-94
2022/05/14 13:37:35;;;;;;;7.10;3.37;;;25.30;47.00;;;;;;5025548;28;20288;-94
2022/05/14 13:40:11;;;;;;;6.40;2.60;;;25.30;48.30;;;;;;5009221;28;20169;-93
2022/05/14 13:42:44;;;;;;;8.77;3.97;;;25.30;48.30;;;;;;5025197;28;20176;-93
2022/05/14 13:45:23;;;;;;;7.63;3.63;;;25.20;46.20;;;;;;5024116;28;20240;-93
2022/05/14 13:47:52;;;;;;;8.17;3.20;;;25.10;46.60;;;;;;5015047;28;20208;-93